Date,TemperatureHighF,TemperatureAvgF,TemperatureLowF,DewpointHighF,DewpointAvgF,DewpointLowF,HumidityHigh,HumidityAvg,HumidityLow,PressureMaxIn,PressureMinIn,WindSpeedMaxMPH,WindSpeedAvgMPH,GustSpeedMaxMPH,PrecipitationSumIn
2013-1-1,41.9,38.7,34.3,36.9,33.3,26.6,98,81,62,29.93,29.80,11,5,0,0.00
2013-1-2,34.3,29.6,23.9,33.5,22.5,16.9,97,75,57,30.14,29.90,12,5,0,0.00
2013-1-3,39.0,27.0,15.1,25.4,21.0,14.6,98,79,53,30.15,30.03,9,2,0,0.00
2013-1-4,41.4,33.4,25.7,28.5,26.3,24.6,98,76,57,30.09,29.98,22,7,0,0.00
2013-1-5,42.4,35.0,29.8,33.7,27.7,24.6,98,75,59,30.27,30.02,17,5,0,0.00
2013-1-6,50.5,39.6,25.9,41.8,33.1,25.4,98,80,51,30.09,29.92,13,3,0,0.00
2013-1-7,44.6,37.1,24.3,35.6,30.9,23.8,98,79,60,30.33,30.04,15,4,0,0.00
2013-1-8,54.0,37.5,22.8,41.1,33.3,22.3,98,87,49,30.32,30.26,8,2,0,0.00
2013-1-9,49.3,38.8,25.5,48.2,38.0,25.0,98,97,79,30.28,30.13,5,2,0,0.00
2013-1-10,52.2,44.2,37.8,38.3,34.2,31.1,95,68,51,30.50,30.27,10,3,0,0.00
2013-1-11,44.1,39.5,33.8,43.6,38.9,33.3,98,97,91,30.41,30.00,10,2,0,0.19
2013-1-12,57.9,46.7,40.5,57.3,46.2,40.0,98,98,98,30.07,30.00,6,2,0,0.01
2013-1-13,51.6,46.4,41.4,51.1,45.9,40.9,98,98,98,30.03,29.87,9,3,0,0.00
2013-1-14,58.6,51.7,38.5,58.0,51.0,38.0,98,97,76,30.21,29.85,12,4,0,0.19
2013-1-15,39.2,37.3,33.1,38.7,36.8,32.6,98,98,98,30.24,30.06,7,3,0,0.64
2013-1-16,43.0,35.8,32.5,42.5,35.3,32.0,98,98,98,30.05,29.74,10,3,0,0.83
2013-1-17,42.6,39.2,34.9,41.6,35.6,29.6,98,88,63,30.03,29.86,10,4,0,0.00
2013-1-18,36.1,31.3,26.1,34.7,21.0,12.6,98,67,41,30.38,29.94,20,6,0,0.00
2013-1-19,54.5,40.1,27.3,34.5,30.6,18.9,98,72,44,30.30,29.84,14,6,0,0.00
2013-1-20,56.8,43.5,30.2,37.0,27.6,15.0,95,56,24,29.99,29.71,21,8,0,0.00
2013-1-21,38.5,30.5,24.6,34.2,22.0,13.5,98,71,57,29.99,29.70,17,5,0,0.00
2013-1-22,25.3,17.5,11.1,13.0,1.1,-2.2,63,48,35,30.17,29.83,20,9,0,0.00
2013-1-23,23.7,16.9,9.0,13.5,2.3,-0.3,82,53,38,30.24,30.04,15,5,0,0.00
2013-1-24,25.2,17.8,11.1,18.3,10.0,0.7,98,74,42,30.39,29.99,19,6,0,0.00
2013-1-25,21.2,15.6,9.5,18.7,10.4,0.5,98,81,53,30.40,29.95,10,3,0,0.00
2013-1-26,31.6,22.7,14.5,27.7,21.0,14.0,98,94,71,30.32,29.97,10,3,0,0.01
2013-1-27,38.1,25.2,14.2,37.6,24.6,13.7,98,97,81,30.49,30.34,7,2,0,0.01
2013-1-28,42.3,33.5,27.5,41.8,33.0,27.0,98,98,98,30.40,29.94,7,4,0,0.16
2013-1-29,67.1,50.7,35.6,66.5,50.2,35.1,98,98,98,30.04,29.88,13,4,0,0.00
2013-1-30,68.7,57.8,48.4,68.1,57.2,47.9,98,98,98,29.88,29.12,20,7,0,2.74
2013-1-31,57.4,40.6,25.9,56.8,30.7,13.9,98,69,50,29.79,29.03,28,12,0,0.73
2013-2-1,28.4,23.6,16.2,27.9,15.0,6.5,98,71,47,30.25,29.70,33,8,0,0.00
2013-2-2,27.0,20.3,11.7,25.7,16.8,9.6,98,88,52,30.27,29.91,10,4,0,0.00
2013-2-3,33.6,26.8,17.2,33.1,26.3,16.7,98,98,98,29.91,29.71,18,3,0,0.03
2013-2-4,35.8,27.6,18.1,30.8,23.3,15.2,98,84,59,29.98,29.79,14,5,0,0.00
2013-2-5,38.7,32.2,27.1,38.2,31.7,26.6,98,98,98,29.83,29.74,5,2,0,0.00
2013-2-6,41.5,34.2,27.0,38.4,32.5,26.5,98,94,68,30.25,29.82,14,5,0,0.00
2013-2-7,36.3,30.4,22.6,35.8,29.6,22.1,98,97,81,30.35,30.11,11,4,0,0.00
2013-2-8,39.2,35.1,30.9,38.7,34.6,30.4,98,98,98,30.11,29.63,22,6,0,0.19
2013-2-9,40.1,30.4,23.4,30.4,24.6,19.4,98,81,51,30.29,29.80,26,9,0,0.00
2013-2-10,44.1,31.8,16.0,34.4,24.0,15.5,98,77,42,30.38,30.13,14,4,0,0.00
2013-2-11,51.4,43.4,33.8,50.9,42.8,33.3,98,98,77,30.14,29.57,12,5,0,0.35
2013-2-12,55.6,45.0,32.2,45.9,37.2,31.7,98,77,46,29.89,29.70,17,6,0,0.00
2013-2-13,43.9,34.0,24.6,43.4,33.5,24.1,98,98,98,29.85,29.55,9,3,0,0.07
2013-2-14,50.4,36.2,28.8,49.0,35.6,28.3,98,98,94,29.90,29.64,9,3,0,0.20
2013-2-15,58.3,41.8,31.1,50.6,38.1,30.6,98,89,55,29.93,29.79,13,4,0,0.10
2013-2-16,36.0,32.8,29.3,35.5,32.3,28.8,98,98,98,29.90,29.71,10,4,0,0.14
2013-2-17,31.5,25.3,21.4,31.0,24.8,20.9,98,98,96,30.07,29.71,25,9,0,0.00
2013-2-18,43.2,28.5,15.8,42.7,28.0,15.3,98,98,89,30.27,30.05,12,5,0,0.00
2013-2-19,42.8,37.3,29.5,42.3,36.8,29.0,98,98,98,30.05,29.59,15,7,0,0.20
2013-2-20,35.2,29.1,22.5,34.7,28.6,22.0,98,98,98,30.03,29.72,24,10,0,0.00
2013-2-21,38.3,27.9,20.7,37.8,27.4,20.2,98,98,98,30.22,30.00,18,7,0,0.00
2013-2-22,32.2,29.0,26.1,31.7,28.5,25.6,98,98,98,30.28,30.12,10,4,0,0.00
2013-2-23,46.6,37.8,30.0,46.1,37.3,29.5,98,98,98,30.12,29.71,8,3,0,0.08
2013-2-24,48.7,39.5,28.8,48.2,39.0,28.3,98,98,98,30.00,29.68,21,7,0,0.00
2013-2-25,49.5,35.5,24.6,46.0,34.6,24.1,98,97,85,30.11,30.00,7,3,0,0.00
2013-2-26,41.4,36.5,25.5,40.9,36.0,25.0,98,98,98,30.12,29.52,24,6,0,0.73
2013-2-27,56.1,45.7,38.7,55.5,45.2,38.2,98,98,98,29.58,29.40,12,5,0,0.08
2013-2-28,46.6,41.1,37.8,44.3,39.9,37.3,98,96,75,29.61,29.52,16,6,0,0.00
2013-3-1,42.4,38.7,30.9,41.9,38.2,30.4,98,98,98,29.76,29.59,12,6,0,0.00
2013-3-2,35.8,31.4,28.2,35.3,30.9,27.7,98,98,98,29.76,29.68,12,6,0,0.00
2013-3-3,37.2,31.6,27.7,34.1,30.0,27.2,98,94,77,29.78,29.67,19,8,0,0.00
2013-3-4,41.5,32.2,23.9,41.0,30.1,23.4,98,92,73,29.91,29.78,21,9,0,0.00
2013-3-5,50.4,37.0,27.0,49.9,36.4,26.5,98,97,86,29.97,29.72,11,5,0,0.00
2013-3-6,37.6,34.8,31.8,37.1,34.3,31.3,98,98,98,29.88,29.52,20,8,0,0.10
2013-3-7,48.4,39.5,34.0,41.6,37.4,33.5,98,93,69,30.04,29.88,21,8,0,0.00
2013-3-8,47.5,39.6,32.2,40.8,36.6,31.7,98,89,74,30.16,30.01,23,11,0,0.00
2013-3-9,65.5,44.7,33.1,64.9,43.5,32.6,98,96,76,30.24,30.15,15,5,0,0.00
2013-3-10,62.2,45.7,26.8,49.6,36.9,26.3,98,75,47,30.23,30.12,17,5,0,0.00
2013-3-11,57.7,49.2,41.4,57.1,48.7,40.9,98,98,98,30.15,29.84,13,7,0,0.00
2013-3-12,57.7,50.4,40.3,57.1,49.8,39.8,98,98,98,29.85,29.62,16,8,0,1.26
2013-3-13,49.5,38.8,25.7,49.0,38.3,25.2,98,98,88,29.93,29.78,15,6,0,0.00
2013-3-14,43.7,35.7,29.3,43.2,35.2,28.8,98,98,98,29.99,29.90,25,10,0,0.00
2013-3-15,55.4,41.2,23.5,54.8,40.7,23.0,98,98,97,29.97,29.66,18,5,0,0.00
2013-3-16,49.3,43.0,36.0,48.8,42.5,35.5,98,98,98,29.82,29.55,9,4,0,0.00
2013-3-17,41.2,36.2,32.2,40.7,35.6,31.7,98,98,87,30.17,29.81,10,4,0,0.00
2013-3-18,35.6,34.3,33.1,35.1,33.5,29.1,98,97,84,30.21,29.77,12,4,0,0.44
2013-3-19,58.5,43.5,34.3,50.8,39.9,33.8,98,88,64,29.79,29.59,21,7,0,0.01
2013-3-20,50.7,40.9,29.1,43.6,32.3,23.3,98,72,56,29.88,29.65,18,6,0,0.00
2013-3-21,36.9,31.4,25.3,35.8,25.4,17.6,98,80,58,29.77,29.63,20,8,0,0.00
2013-3-22,44.8,33.4,23.9,30.8,26.5,18.9,98,77,55,29.89,29.74,16,7,0,0.00
2013-3-23,51.6,37.2,22.6,39.1,32.0,22.1,98,84,58,29.91,29.80,19,6,0,0.00
2013-3-24,42.8,35.1,25.0,39.1,31.6,24.5,98,88,63,29.89,29.56,11,3,0,0.00
2013-3-25,40.8,34.6,31.5,40.3,34.1,31.0,98,98,98,29.54,29.39,6,2,0,0.37
2013-3-26,49.8,47.3,42.3,43.4,41.1,39.6,98,79,71,29.86,29.72,11,9,0,0.00
2013-3-27,48.4,41.1,34.3,46.4,39.0,33.8,98,93,63,30.00,29.86,22,8,0,0.00
2013-3-28,48.0,40.5,32.7,46.1,39.6,32.2,98,97,88,30.08,29.97,24,7,0,0.00
2013-3-29,53.6,45.5,38.3,51.8,43.9,37.8,98,94,81,30.14,30.04,13,6,0,0.00
2013-3-30,56.7,48.5,40.1,56.1,47.9,39.6,98,98,94,30.12,30.02,9,4,0,0.00
2013-3-31,51.8,44.2,41.4,51.3,43.5,40.6,98,97,91,30.02,29.66,10,4,0,0.03
2013-4-1,51.8,45.7,35.4,51.3,42.2,25.9,98,88,68,29.88,29.64,6,4,0,0.02
2013-4-2,46.9,34.1,23.2,35.4,27.3,22.7,98,78,52,30.06,29.89,21,4,0,0.00
2013-4-3,49.5,35.8,22.1,37.7,28.1,21.6,98,76,50,30.28,30.07,17,6,0,0.00
2013-4-4,50.2,37.0,19.6,40.1,27.5,19.1,98,72,46,30.31,29.99,11,4,0,0.00
2013-4-5,64.8,47.9,35.8,58.3,41.2,35.3,98,80,44,29.98,29.69,21,6,0,0.07
2013-4-6,58.1,44.9,32.7,46.6,38.2,32.2,98,79,57,30.23,29.95,12,5,0,0.00
2013-4-7,69.8,52.6,37.2,55.8,47.2,36.7,98,84,60,30.17,29.86,22,8,0,0.00
2013-4-8,80.1,66.5,49.6,68.3,60.3,49.1,98,83,52,29.98,29.83,14,4,0,0.00
2013-4-9,88.0,72.0,58.3,87.4,71.4,57.7,98,98,98,29.98,29.81,12,4,0,0.00
2013-4-10,86.7,72.8,63.0,86.1,72.2,62.4,98,98,98,29.87,29.68,14,4,0,0.00
2013-4-11,84.6,67.6,53.4,84.0,67.0,52.8,98,98,97,29.80,29.65,18,6,0,0.00
2013-4-12,69.4,55.4,50.0,68.8,54.8,49.5,98,98,98,29.73,29.48,12,6,0,0.45
2013-4-13,69.1,54.5,39.4,68.5,53.9,38.9,98,98,98,29.85,29.67,14,4,0,0.00
2013-4-14,65.8,53.9,37.0,65.2,53.4,36.5,98,98,98,30.04,29.85,18,4,0,0.00
2013-4-15,60.4,55.3,51.4,59.8,54.8,50.9,98,98,98,30.21,30.04,13,5,0,0.01
2013-4-16,73.8,61.2,52.3,73.2,60.6,51.8,98,98,98,30.22,30.01,17,7,0,0.00
2013-4-17,72.9,66.3,58.6,72.3,65.7,58.0,98,98,98,30.15,30.03,9,4,0,0.00
2013-4-18,73.4,62.5,56.1,72.8,61.9,55.5,98,98,98,30.15,29.92,14,6,0,0.34
2013-4-19,75.6,64.8,51.8,75.0,64.2,51.3,98,98,98,29.92,29.50,26,7,0,1.26
2013-4-20,58.6,51.4,43.7,58.0,50.9,43.2,98,98,98,30.23,29.69,17,7,0,0.08
2013-4-21,50.0,45.1,39.9,49.5,44.6,39.4,98,98,98,30.51,30.46,14,6,0,0.00
2013-5-3,50.4,42.2,42.1,40.2,26.7,-99.9,83,69,68,30.25,30.24,5,-90,0,0.00
2013-5-4,67.3,54.5,42.3,44.4,41.9,39.0,98,65,42,30.25,30.06,15,4,0,0.00
2013-5-5,60.6,49.2,39.6,44.6,40.5,37.6,98,73,49,30.15,30.06,14,4,0,0.00
2013-5-6,61.7,53.6,40.1,58.2,49.4,38.1,98,86,79,30.10,29.97,11,4,0,0.00
2013-5-7,63.3,59.5,57.2,62.7,58.9,56.6,98,98,98,29.98,29.85,14,5,0,1.56
2013-5-8,71.1,61.1,55.0,59.8,56.2,51.8,98,86,54,29.90,29.82,11,4,0,0.01
2013-5-9,75.6,56.6,52.5,58.4,52.4,-99.9,98,91,57,29.89,29.81,6,-15,0,0.00
2013-5-10,84.2,68.4,50.0,64.6,57.4,49.5,98,73,41,29.91,29.76,14,3,0,1.05
2013-5-11,78.8,65.9,60.8,68.5,63.5,58.7,98,92,59,29.80,29.62,10,3,0,0.54
2013-5-12,64.0,57.0,43.7,60.0,40.5,28.4,98,58,30,29.92,29.63,17,6,0,0.00
2013-5-13,59.2,47.5,34.9,34.6,29.9,23.7,98,54,29,30.05,29.91,16,4,0,0.00
2013-5-14,62.8,48.0,27.1,44.3,33.9,26.6,98,63,34,30.10,29.94,12,3,0,0.00
2013-5-15,84.6,65.3,53.2,66.3,54.7,42.6,98,70,50,29.95,29.58,15,4,0,0.00
2013-5-16,79.5,73.4,66.6,64.0,60.0,54.7,77,63,55,29.82,29.64,14,4,0,0.00
2013-5-17,82.9,69.7,52.9,62.9,52.0,42.7,98,59,29,30.06,29.83,9,2,0,0.00
2013-5-18,66.6,61.8,57.9,59.5,55.2,49.2,98,80,60,30.15,30.06,10,4,0,0.02
2013-5-19,69.3,63.3,57.9,68.7,62.7,57.3,98,98,98,30.12,30.00,6,3,0,0.01
2013-5-20,86.2,71.3,64.8,70.8,67.4,64.2,98,89,58,30.02,29.88,7,3,0,0.00
2013-5-21,84.6,73.7,64.8,73.4,69.4,64.2,98,88,67,29.91,29.78,9,3,0,0.00
2013-5-22,89.4,76.2,65.7,76.0,70.3,64.1,98,84,54,29.83,29.73,16,4,0,0.05
2013-5-23,80.6,69.6,63.1,71.7,66.5,62.5,98,91,68,29.80,29.65,12,4,0,2.06
2013-5-24,63.5,55.8,46.9,62.9,49.9,35.4,98,82,61,30.04,29.62,21,7,0,0.17
2013-5-25,66.2,53.9,42.3,41.8,37.3,34.2,77,55,34,30.06,29.96,18,8,0,0.00
2013-5-26,73.6,58.2,44.6,43.9,39.5,35.0,78,52,29,30.12,30.02,14,5,0,0.00
2013-5-27,72.1,59.2,39.9,53.2,45.0,39.4,98,63,34,30.19,30.08,7,2,0,0.00
2013-5-28,79.7,65.5,55.2,70.5,61.3,50.6,98,87,64,30.11,29.97,8,2,0,0.12
2013-5-29,90.7,77.5,64.9,71.0,66.7,64.3,98,73,45,30.03,29.97,12,3,0,0.00
2013-5-30,93.2,80.6,66.4,72.1,67.5,64.8,98,67,43,30.09,30.01,8,3,0,0.00
2013-5-31,91.9,79.5,64.0,70.9,66.2,63.4,98,67,42,30.06,29.93,12,3,0,0.00
2013-6-1,91.4,80.4,67.3,70.8,67.5,64.1,98,66,49,29.95,29.82,11,4,0,0.00
2013-6-2,83.7,75.9,67.8,73.1,68.0,63.8,98,78,65,29.82,29.74,10,4,0,1.00
2013-6-3,81.1,72.1,64.4,71.7,66.4,58.1,98,84,58,29.84,29.71,12,2,0,0.48
2013-6-4,79.9,66.0,53.6,57.6,50.8,45.9,98,61,36,30.03,29.85,9,3,0,0.00
2013-6-5,78.1,65.4,48.7,58.7,54.2,48.2,98,70,47,30.09,29.95,10,3,0,0.00
2013-6-6,71.6,65.2,60.6,65.8,60.2,54.5,98,84,70,29.99,29.76,11,4,0,0.71
2013-6-7,71.1,67.8,63.9,70.5,67.2,63.3,98,98,98,29.76,29.49,13,4,0,2.27
2013-6-8,84.0,70.9,62.6,66.7,64.3,62.0,98,82,51,29.99,29.59,8,4,0,0.00
2013-6-9,81.3,70.6,59.2,69.8,64.7,58.6,98,83,62,30.11,30.00,10,2,0,0.00
2013-6-10,79.0,71.3,67.3,78.4,70.5,65.9,98,98,87,30.01,29.68,14,4,0,2.47
2013-6-11,83.1,73.3,65.7,71.5,67.5,65.1,98,83,62,29.74,29.66,13,4,0,0.00
2013-6-12,91.6,76.4,63.0,72.6,68.5,62.4,98,79,50,29.77,29.68,9,2,0,0.00
2013-6-13,86.9,73.5,66.7,73.5,69.0,59.0,98,87,59,29.72,29.35,16,6,0,0.75
2013-6-14,79.7,67.4,57.6,61.3,57.7,53.8,98,74,44,29.86,29.47,16,6,0,0.02
2013-6-15,84.2,69.8,54.9,64.5,59.1,53.8,98,73,37,29.98,29.87,11,3,0,0.00
2013-6-16,84.4,72.0,57.7,69.0,64.0,57.1,98,78,57,29.93,29.77,11,3,0,0.00
2013-6-17,89.6,77.8,68.2,72.1,67.7,63.5,98,72,55,29.86,29.77,11,2,0,0.00
2013-6-18,78.6,70.8,63.0,74.8,69.5,62.4,98,96,82,29.83,29.68,7,2,0,0.44
2013-6-19,78.1,68.3,58.8,67.0,63.0,58.2,98,85,53,30.06,29.79,7,2,0,0.43
2013-6-20,79.2,68.8,56.5,68.8,61.4,55.9,98,79,56,30.17,30.06,10,3,0,0.00
2013-6-21,81.9,68.7,53.2,62.6,56.7,45.6,98,70,32,30.21,30.14,9,2,0,0.00
2013-6-22,91.0,73.7,57.7,70.6,65.5,57.1,98,78,47,30.16,30.04,10,3,0,0.00
2013-6-23,91.0,74.7,63.3,76.4,70.6,62.7,98,88,58,30.10,29.97,8,2,0,0.23
2013-6-24,92.8,77.5,68.0,76.4,70.6,65.8,98,82,49,30.03,29.92,10,2,0,0.01
2013-6-25,93.4,79.8,65.1,75.5,70.9,64.5,98,77,52,29.95,29.79,17,3,0,0.13
2013-6-26,90.7,75.0,64.9,75.5,70.3,64.3,98,87,58,29.82,29.71,9,2,0,1.57
2013-6-27,83.3,75.5,67.5,77.0,72.5,66.9,98,91,76,29.73,29.49,14,3,0,0.06
2013-6-28,86.5,76.5,69.1,76.2,71.5,68.5,98,86,66,29.52,29.37,10,3,0,0.03
2013-6-29,94.3,77.4,64.0,74.6,67.3,63.2,98,74,36,29.59,29.42,7,3,0,0.00
2013-6-30,84.9,76.4,68.9,78.2,73.6,68.3,98,92,72,29.75,29.59,23,4,0,0.00
2013-7-1,83.5,75.9,70.9,77.7,74.0,70.3,98,94,76,29.89,29.74,10,4,0,0.06
2013-7-2,83.3,75.8,72.7,77.7,74.2,72.1,98,95,79,30.08,29.88,11,5,0,0.77
2013-7-3,86.5,76.0,71.1,80.9,74.3,70.5,98,95,75,30.14,30.07,8,3,0,0.52
2013-7-4,89.1,79.7,72.7,78.2,74.7,72.1,98,86,65,30.17,30.07,13,5,0,0.00
2013-7-5,90.7,81.0,72.0,77.5,74.5,71.4,98,82,60,30.13,30.03,11,4,0,0.00
2013-7-6,95.0,81.5,71.4,78.9,74.7,70.8,98,82,53,30.10,29.97,8,3,0,0.00
2013-7-7,93.7,78.8,68.4,77.8,73.3,67.8,98,85,60,30.02,29.90,11,3,0,0.26
2013-7-8,89.2,76.3,68.2,75.1,70.9,67.6,98,85,58,30.01,29.93,8,2,0,0.06
2013-7-9,85.8,77.0,69.6,77.7,73.6,69.0,98,90,73,30.01,29.90,7,2,0,0.00
2013-7-10,88.5,79.3,72.9,79.5,75.8,71.5,98,90,68,29.92,29.76,10,3,0,0.00
2013-7-11,86.2,76.4,71.6,76.4,72.8,70.2,98,89,64,29.82,29.73,10,3,0,0.05
2013-7-12,72.3,69.2,66.4,71.7,68.6,65.8,98,98,98,29.93,29.81,9,3,0,1.20
2013-7-13,85.6,75.4,68.9,79.3,72.4,68.3,98,91,73,30.19,29.91,8,3,0,0.30
2013-7-14,92.7,81.0,71.2,79.2,75.4,70.6,98,85,57,30.25,30.18,9,3,0,0.00
2013-7-15,97.3,82.3,69.8,80.0,75.2,69.2,98,81,55,30.21,30.09,7,2,0,0.00
2013-7-16,94.6,83.9,72.9,78.1,75.1,72.3,98,78,52,30.16,30.08,9,2,0,0.00
2013-7-17,100.0,83.0,71.1,80.0,74.4,70.5,98,78,42,30.13,29.99,8,2,0,0.00
2013-7-18,100.4,85.5,72.7,82.6,78.2,72.1,98,81,52,30.02,29.90,6,2,0,0.00
2013-7-19,97.3,84.7,74.7,82.2,77.6,70.9,98,81,58,29.92,29.77,17,2,0,0.00
2013-7-20,93.6,81.0,71.2,79.3,75.4,70.6,98,85,60,29.79,29.69,12,3,0,0.47
2013-7-21,91.6,78.0,68.0,79.6,73.6,67.4,98,88,59,29.84,29.78,6,2,0,0.01
2013-7-22,88.3,78.2,70.0,82.9,76.0,69.4,98,94,71,29.84,29.66,11,2,0,1.17
2013-7-23,88.0,76.6,69.6,83.2,74.2,69.0,98,93,67,29.66,29.54,12,3,0,0.52
2013-7-24,83.8,74.6,66.7,78.0,70.8,63.4,98,89,67,29.82,29.57,8,3,0,0.00
2013-7-25,79.9,67.7,58.3,67.9,62.6,57.4,98,85,63,29.93,29.82,8,4,0,0.00
2013-7-26,89.1,72.1,59.0,72.8,64.0,58.4,98,79,42,29.99,29.92,6,2,0,0.00
2013-7-27,83.7,71.2,61.9,76.4,69.0,61.3,98,93,72,29.96,29.81,11,3,0,0.20
2013-7-28,86.5,74.5,67.6,81.9,72.0,67.0,98,93,63,29.91,29.79,8,3,0,0.44
2013-7-29,85.8,70.2,58.8,69.6,62.2,56.3,98,79,45,30.06,29.88,8,2,0,0.20
2013-7-30,84.7,69.4,54.7,72.4,61.8,54.1,98,80,52,30.13,30.04,6,2,0,0.00
2013-7-31,84.4,72.7,59.7,81.0,71.1,59.1,98,95,71,30.06,29.92,7,2,0,0.00
2013-8-1,90.9,74.5,66.7,85.8,73.4,66.1,98,97,70,29.92,29.70,8,3,0,0.26
2013-8-2,90.7,76.2,62.2,82.2,69.7,61.6,98,83,51,29.86,29.74,9,2,0,0.00
2013-8-3,78.8,67.7,63.1,78.2,67.1,62.5,98,98,98,29.87,29.81,6,1,0,0.28
2013-8-4,82.9,70.4,57.6,74.6,63.1,57.0,98,81,47,29.93,29.80,14,4,0,0.00
2013-8-5,85.1,68.6,52.7,74.2,61.5,52.2,98,82,43,30.00,29.91,6,2,0,0.00
2013-8-6,76.3,67.2,63.0,75.7,66.6,62.4,98,98,98,29.98,29.91,9,3,0,0.36
2013-8-7,84.4,73.5,66.7,83.8,72.9,66.1,98,98,98,29.97,29.89,11,4,0,0.33
2013-8-8,85.1,75.3,68.5,84.5,74.7,67.9,98,98,98,29.95,29.87,10,3,0,2.69
2013-8-9,87.4,79.5,73.8,86.8,78.9,73.2,98,98,98,29.88,29.75,10,4,0,0.61
2013-8-10,87.6,75.9,66.6,83.4,73.5,66.0,98,93,56,29.99,29.84,6,2,0,0.00
2013-8-11,86.2,75.1,64.8,85.6,74.5,64.2,98,98,98,30.02,29.90,9,2,0,0.00
2013-8-12,90.1,76.5,66.6,87.4,75.7,66.0,98,97,75,29.94,29.80,6,2,0,0.00
2013-8-13,89.2,75.8,71.2,88.6,75.2,70.6,98,98,98,29.80,29.62,9,3,0,0.39
2013-8-14,75.2,65.5,54.5,70.6,61.6,53.9,98,89,54,29.98,29.70,14,5,0,0.00
2013-8-15,84.4,64.4,50.5,72.8,57.4,50.0,98,82,40,30.09,29.99,6,2,0,0.00
2013-8-16,79.7,64.8,49.8,74.1,60.1,49.3,98,87,55,30.10,30.03,7,1,0,0.00
2013-8-17,79.5,66.7,51.6,77.7,64.1,51.1,98,92,62,30.17,30.10,10,2,0,0.00
2013-8-18,73.9,67.7,63.7,73.3,67.1,63.1,98,98,98,30.14,30.06,6,2,0,0.03
2013-8-19,77.7,67.6,58.5,77.1,67.0,57.9,98,98,98,30.08,29.96,7,2,0,0.00
2013-8-20,89.6,74.3,60.4,86.5,71.2,59.8,98,92,55,30.07,29.98,6,2,0,0.00
2013-8-21,88.7,75.8,63.3,88.1,75.2,62.7,98,98,98,30.10,29.97,8,2,0,0.01
2013-8-22,88.2,77.4,67.8,87.6,76.8,67.2,98,98,98,29.98,29.82,8,3,0,0.01
2013-8-23,75.0,69.9,58.3,74.4,69.3,57.7,98,98,98,30.01,29.83,9,2,0,0.02
2013-8-24,83.5,69.4,57.9,79.8,64.8,57.3,98,88,45,30.23,30.01,8,2,0,0.00
2013-8-25,85.1,67.9,53.1,77.2,62.8,52.5,98,86,46,30.31,30.16,9,2,0,0.00
2013-8-26,88.5,72.7,57.7,81.3,67.9,57.1,98,87,53,30.19,29.89,11,3,0,0.00
2013-8-27,93.0,78.8,71.1,87.9,77.7,70.5,98,97,60,29.89,29.77,9,3,0,0.00
2013-8-28,79.2,73.5,68.7,78.6,72.9,68.1,98,98,98,29.81,29.71,8,2,0,0.03
2013-8-29,84.7,75.3,68.7,84.1,74.7,68.1,98,98,98,29.92,29.73,7,2,0,0.01
2013-8-30,89.1,76.5,69.1,87.7,75.5,68.5,98,97,70,29.93,29.78,10,4,0,0.00
2013-8-31,89.2,78.2,68.0,88.6,77.6,67.4,98,98,98,29.79,29.68,7,3,0,0.00
2013-9-1,95.5,79.1,67.1,89.9,77.2,66.5,98,95,56,29.73,29.65,7,2,0,0.00
2013-9-2,92.5,79.4,69.1,88.8,77.4,68.5,98,94,62,29.69,29.61,7,2,0,0.00
2013-9-3,85.5,75.0,64.9,77.3,69.1,62.2,98,84,50,29.84,29.62,14,4,0,0.00
2013-9-4,85.8,68.3,53.1,72.4,60.0,52.5,98,80,38,29.97,29.84,6,2,0,0.00
2013-9-5,84.0,68.6,55.2,79.1,62.7,52.7,98,84,51,30.03,29.90,12,3,0,0.00
2013-9-6,79.3,62.8,50.2,64.7,54.3,49.7,98,78,41,30.16,30.03,8,2,0,0.00
2013-9-7,83.7,64.4,46.6,76.2,58.9,46.1,98,85,51,30.04,29.82,8,2,0,0.00
2013-9-8,86.5,72.6,60.6,82.2,70.3,60.0,98,94,65,29.95,29.76,9,2,0,0.00
2013-9-9,78.6,67.7,54.7,78.0,67.0,54.1,98,98,93,30.10,29.96,8,3,0,0.00
2013-9-10,91.8,79.1,69.3,90.8,78.2,68.7,98,97,81,30.07,29.97,9,3,0,0.00
2013-9-11,93.2,81.1,71.4,92.5,79.6,70.8,98,95,63,30.05,29.90,9,2,0,0.00
2013-9-12,90.7,75.6,67.3,90.1,75.0,66.7,98,98,98,29.89,29.64,9,2,0,0.42
2013-9-13,78.1,67.8,59.2,73.2,63.0,54.5,98,87,47,29.81,29.58,16,4,0,0.02
2013-9-14,72.5,57.6,45.7,63.3,52.5,45.2,98,86,49,30.05,29.82,12,4,0,0.00
2013-9-15,79.2,59.5,40.5,69.2,53.7,40.0,98,84,52,30.13,29.97,8,2,0,0.00
2013-9-16,74.1,62.6,52.5,73.5,61.2,52.0,98,96,69,30.14,29.92,10,3,0,0.05
2013-9-17,71.4,56.3,42.8,59.1,50.3,42.3,98,84,42,30.32,30.14,9,4,0,0.00
2013-9-18,70.9,53.8,37.0,62.7,48.6,36.5,98,86,49,30.25,30.08,7,2,0,0.00
2013-9-19,79.5,60.7,42.6,74.8,58.6,42.1,98,94,64,30.09,29.97,8,2,0,0.00
2013-9-20,80.1,65.1,50.4,78.7,63.9,49.9,98,96,73,29.99,29.85,16,3,0,0.00
2013-9-21,75.4,64.9,57.9,74.8,64.3,57.3,98,98,98,29.86,29.57,11,4,0,1.18
2013-9-22,70.7,61.7,49.3,69.6,59.6,48.8,98,94,62,29.83,29.60,10,3,0,0.01
2013-9-23,69.3,55.2,43.0,58.6,50.8,42.5,98,87,54,29.98,29.83,12,3,0,0.00
2013-9-24,78.1,54.4,36.9,63.0,48.7,36.4,98,85,43,30.01,29.83,10,2,0,0.00
2013-9-25,77.5,57.3,40.8,67.9,50.6,40.3,98,83,41,29.88,29.76,7,1,0,0.00
2013-9-26,77.2,60.3,48.4,72.4,55.8,47.9,98,87,49,29.97,29.81,7,2,0,0.00
2013-9-27,74.1,60.7,49.8,73.5,60.1,49.3,98,98,98,30.14,29.97,6,1,0,0.00
2013-9-28,74.8,60.3,52.0,70.5,59.2,51.5,98,97,71,30.21,30.12,7,1,0,0.00
2013-9-29,74.5,57.9,44.1,72.3,56.8,43.6,98,97,63,30.11,29.95,6,1,0,0.00
2013-9-30,77.2,59.7,45.3,72.3,56.3,44.8,98,90,54,29.99,29.87,5,1,0,0.00
2013-10-1,83.7,65.1,52.3,79.6,61.2,51.8,98,90,51,29.96,29.85,9,2,0,0.00
2013-10-2,86.9,69.1,55.8,81.6,64.5,55.2,98,88,50,29.98,29.88,9,2,0,0.00
2013-10-3,83.7,68.9,56.5,82.3,67.8,55.9,98,97,67,30.02,29.93,7,1,0,0.00
2013-10-4,91.9,71.5,57.6,85.2,68.7,57.0,98,92,49,29.99,29.90,7,1,0,0.00
2013-10-5,89.2,76.4,62.4,87.0,72.8,61.8,98,90,55,29.98,29.89,7,2,0,0.00
2013-10-6,88.2,74.2,63.3,86.1,71.6,62.7,98,93,58,29.92,29.81,12,4,0,0.00
2013-10-7,72.9,64.5,54.0,72.3,63.9,53.4,98,98,98,29.94,29.66,12,5,0,1.67
2013-10-8,68.2,54.5,41.9,63.6,52.0,41.4,98,92,59,30.18,29.94,13,2,0,0.00
2013-10-9,60.4,54.6,48.4,59.8,54.1,47.9,98,98,98,30.23,30.11,9,3,0,0.10
2013-10-10,58.1,55.1,52.0,57.5,54.5,51.5,98,98,98,30.11,29.89,12,5,0,2.95
2013-10-11,61.9,59.3,56.7,61.3,58.7,56.1,98,98,98,29.89,29.83,10,4,0,3.77
2013-10-12,66.9,62.2,58.8,66.3,61.6,58.2,98,98,98,30.07,29.89,7,3,0,0.32
2013-10-13,64.6,58.8,54.0,64.0,58.2,53.4,98,98,98,30.23,30.07,9,3,0,0.24
2013-10-14,70.9,58.7,49.3,69.6,58.0,48.8,98,98,85,30.25,30.12,7,2,0,0.00
2013-10-15,73.4,57.2,45.5,67.0,53.3,45.0,98,89,47,30.14,29.99,8,1,0,0.00
2013-10-16,69.6,62.0,55.8,69.0,61.4,55.2,98,98,98,29.99,29.80,7,2,0,0.00
2013-10-17,75.9,65.0,58.3,75.3,64.4,57.7,98,98,98,29.80,29.60,14,2,0,0.12
2013-10-18,67.8,55.6,42.1,59.1,50.9,41.6,98,87,51,29.90,29.70,14,4,0,0.00
2013-10-19,64.9,52.2,39.6,64.3,51.6,39.1,98,98,98,29.89,29.67,12,3,0,0.00
2013-10-20,63.7,50.5,37.8,54.6,45.1,37.3,98,85,47,29.99,29.74,11,4,0,0.00
2013-10-21,66.2,51.7,35.2,60.4,45.3,34.7,98,83,45,30.04,29.84,16,3,0,0.00
2013-10-22,63.1,51.0,42.3,62.5,50.3,41.8,98,97,70,29.85,29.71,7,2,0,0.00
2013-10-23,56.5,46.8,39.9,52.5,43.5,39.3,98,90,56,29.76,29.54,14,3,0,0.00
2013-10-24,50.5,42.1,32.5,48.2,36.7,31.5,98,83,52,30.02,29.76,16,5,0,0.00
2013-10-25,55.0,41.5,30.9,49.9,36.9,30.4,98,86,49,30.21,30.01,13,4,0,0.00
2013-10-26,56.3,43.2,26.1,44.6,33.6,25.6,98,72,44,30.19,29.82,14,4,0,0.00
2013-10-27,59.5,46.8,33.4,52.2,39.9,32.9,98,80,47,30.05,29.83,14,3,0,0.00
2013-10-28,66.0,44.5,28.4,59.7,40.0,27.9,98,88,45,30.18,30.04,7,1,0,0.00
2013-10-29,68.0,47.1,32.4,59.8,44.0,31.9,98,91,48,30.28,30.18,6,1,0,0.00
2013-10-30,69.3,55.2,44.8,68.7,54.6,44.3,98,98,98,30.22,30.04,7,2,0,0.09
2013-10-31,67.1,60.6,54.0,66.5,60.0,53.4,98,98,98,30.08,29.66,14,5,0,0.02
2013-11-1,73.9,65.5,53.6,73.0,64.6,53.0,98,97,70,29.65,29.46,17,5,0,0.29
2013-11-2,67.8,56.0,45.3,63.7,51.4,43.2,98,86,55,29.76,29.53,12,3,0,0.00
2013-11-3,56.5,46.4,34.5,50.4,38.6,26.9,98,78,36,30.35,29.75,16,4,0,0.00
2013-11-4,46.6,36.3,27.9,35.8,28.9,24.2,98,78,44,30.52,30.36,8,2,0,0.00
2013-11-5,56.7,46.1,31.3,56.1,45.6,30.8,98,98,98,30.51,30.36,7,2,0,0.00
2013-11-6,68.2,56.8,43.7,67.6,56.2,43.2,98,98,98,30.36,29.95,14,4,0,0.00
2013-11-7,59.9,53.1,40.8,59.3,51.7,29.2,98,95,60,29.95,29.76,23,6,0,0.06
2013-11-8,48.7,40.7,30.9,35.3,31.4,27.9,98,72,47,30.19,29.95,20,5,0,0.00
2013-11-9,53.6,40.9,24.8,42.9,31.7,24.3,98,73,47,30.23,29.92,13,4,0,0.00
2013-11-10,62.4,48.5,37.6,43.6,36.1,31.2,98,65,41,30.10,29.84,19,6,0,0.00
2013-11-11,56.5,46.4,33.6,46.4,36.8,33.1,98,72,44,30.18,29.89,9,4,0,0.00
2013-11-12,48.4,38.0,27.1,47.9,27.8,16.3,98,68,47,30.27,29.86,21,6,0,0.00
2013-11-13,42.4,32.7,26.1,32.8,26.5,18.5,98,81,50,30.35,30.25,17,5,0,0.00
2013-11-14,59.5,39.9,24.3,28.3,22.7,15.9,98,58,19,30.25,30.10,7,2,0,0.00
2013-11-15,61.5,44.0,24.4,49.1,31.8,23.9,98,68,31,30.16,30.07,6,1,0,0.00
2013-11-16,53.6,47.9,41.7,53.0,47.4,41.2,98,98,98,30.22,30.12,8,2,0,0.15
2013-11-17,62.8,56.4,49.3,62.2,55.8,48.8,98,98,98,30.12,29.63,19,6,0,0.04
2013-11-18,67.1,58.8,47.7,61.5,41.7,29.0,98,58,26,29.81,29.57,20,8,0,0.23
2013-11-19,48.0,41.7,32.4,35.1,31.2,28.2,98,68,48,30.25,29.82,18,8,0,0.00
2013-11-20,45.3,32.9,23.7,38.2,26.0,17.1,98,80,33,30.46,30.25,10,2,0,0.00
2013-11-21,49.8,38.8,22.6,49.3,38.3,22.1,98,98,98,30.47,30.27,7,1,0,0.00
2013-11-22,62.6,52.8,44.6,62.0,52.3,44.1,98,98,98,30.27,29.89,8,3,0,0.00
2013-11-23,54.0,41.3,28.6,53.4,33.4,13.7,98,76,50,30.06,29.92,16,9,0,0.00
2013-11-24,29.8,24.5,18.5,19.8,12.5,8.6,98,61,45,30.38,30.06,23,9,0,0.00
2013-11-25,36.3,26.4,16.0,21.6,15.1,9.9,98,66,35,30.44,30.22,14,4,0,0.00
2013-11-26,46.8,34.7,31.6,46.3,29.6,15.1,98,84,50,30.22,29.45,7,3,0,2.07
2013-11-27,40.1,36.0,27.3,39.6,35.5,26.8,98,98,98,29.87,29.37,22,9,0,0.71
2013-11-28,38.1,29.1,23.4,29.0,23.0,17.3,98,81,45,30.36,29.87,14,5,0,0.00
2013-11-29,40.5,29.6,16.9,35.3,25.0,16.4,98,85,54,30.61,30.34,14,4,0,0.00
2013-11-30,35.4,27.7,16.0,31.9,24.6,15.5,98,90,59,30.61,30.25,7,2,0,0.00
2013-12-1,47.8,35.9,18.9,42.3,33.3,18.4,98,91,60,30.25,29.90,5,1,0,0.00
2013-12-2,49.8,41.3,37.6,49.3,40.8,37.1,98,98,98,29.90,29.75,4,1,0,0.00
2013-12-3,58.5,43.8,34.7,54.6,41.7,34.2,98,93,59,29.88,29.76,8,1,0,0.00
2013-12-4,54.7,45.1,33.8,54.1,44.6,33.3,98,98,98,29.97,29.87,6,2,0,0.00
2013-12-5,68.4,58.3,49.5,67.8,57.7,49.0,98,98,98,29.96,29.81,10,5,0,0.00
2013-12-6,63.9,48.8,36.0,63.3,48.3,35.5,98,98,98,30.04,29.77,12,6,0,1.32
2013-12-7,40.8,34.9,27.9,40.3,34.4,27.4,98,98,98,30.42,30.01,14,6,0,0.23
2013-12-8,30.0,26.7,24.4,29.5,26.2,23.9,98,98,98,30.46,30.17,7,3,0,0.02
2013-12-9,38.7,33.0,29.7,38.2,32.5,29.2,98,98,98,30.18,29.90,5,2,0,0.61
2013-12-10,41.2,32.9,29.7,40.7,32.4,29.2,98,98,98,29.95,29.86,10,3,0,0.32
2013-12-11,25.0,20.5,17.4,24.5,20.0,16.9,98,98,98,30.21,30.12,3,0,0,0.00
2013-12-12,31.3,24.4,16.9,30.8,16.4,6.4,98,74,47,30.30,30.11,14,5,0,0.00
2013-12-13,40.8,29.2,16.5,30.1,20.0,9.9,98,73,42,30.20,30.08,11,3,0,0.00
2013-12-14,38.8,33.2,28.6,36.9,32.3,28.1,98,97,75,30.21,29.57,12,4,0,0.72
2013-12-15,44.1,34.5,28.2,43.6,34.0,27.7,98,98,98,29.80,29.49,17,6,0,0.12
2013-12-16,36.1,31.5,27.9,33.7,30.6,26.6,98,97,73,30.06,29.79,13,4,0,0.00
2013-12-17,36.1,31.4,28.9,35.6,30.9,28.4,98,98,98,30.04,29.81,9,3,0,0.00
2013-12-18,38.1,30.5,23.5,32.0,27.0,23.0,98,88,63,30.09,29.85,18,4,0,0.00
2013-12-19,58.6,39.4,21.6,43.0,31.1,21.1,98,76,43,30.08,29.95,9,2,0,0.00
2013-12-20,57.4,49.6,40.6,49.3,38.6,33.0,97,67,50,29.99,29.87,6,3,0,0.00
2013-12-21,71.1,60.1,50.7,70.5,59.5,48.3,98,98,80,29.90,29.77,14,6,0,0.00
2013-12-22,69.6,64.0,61.2,69.0,63.4,60.6,98,98,98,29.89,29.70,17,7,0,0.24
2013-12-23,62.4,52.9,35.6,61.8,52.3,35.1,98,98,98,30.11,29.79,15,5,0,1.18
2013-12-24,38.3,30.6,20.1,36.0,25.7,10.0,98,83,52,30.33,30.07,17,7,0,0.00
2013-12-25,32.0,22.8,14.7,24.3,18.0,13.6,98,84,51,30.45,30.26,7,4,0,0.00
2013-12-26,44.8,29.9,21.6,34.2,25.5,21.1,98,86,50,30.25,30.08,12,3,0,0.00
2013-12-27,50.4,35.0,20.1,31.9,24.7,19.6,98,72,32,30.29,30.19,12,2,0,0.00
2013-12-28,59.2,42.5,26.2,33.2,29.9,25.7,98,66,33,30.21,30.00,15,2,0,0.00
2013-12-29,46.2,43.0,37.6,45.7,39.7,28.8,98,90,55,29.99,29.40,11,3,0,1.43
2013-12-30,45.1,38.0,28.8,44.6,37.5,28.3,98,98,98,30.06,29.69,18,5,0,0.00
2013-12-31,41.7,31.6,25.0,40.5,27.5,19.4,98,86,53,30.20,29.96,23,5,0,0.00
2014-1-1,46.2,32.1,19.9,38.9,28.2,19.4,98,87,55,30.29,30.01,10,3,0,0.00
2014-1-2,35.6,31.2,24.3,35.1,30.7,23.8,98,98,98,30.00,29.49,6,2,0,0.00